• Join FlightAware (Why Join?)
  • Login
  • US Flag 
04:12AM EDT


 

Airport Tracker/Info


-or-


 

Live Flight TrackerFlight Track Log ✈ BWA446 ✈ 23-Apr-2013 ✈ TTPP / POS - TBPB / BGI

Flight Track Log - Related Links

Times and Time Zones

All times are in EDT time to prevent confusion due to time zone crossing. See the BWA446 flight status page for this flight to view local times or setup timezone preferences in your user account.

Time Position Orientation Groundspeed Altitude Reporting Facility
EDT Latitude Longitude Course Direction KTS MPH feet Rate Location/Type
07:41PM 10.8161 -61.1747 36° Northeast  Level Estimated
07:42PM 10.8712 -61.1340 36° Northeast  Level Estimated
07:43PM 10.9264 -61.0933 36° Northeast  Level Estimated
07:44PM 10.9816 -61.0526 36° Northeast  Level Estimated
07:45PM 11.0367 -61.0119 36° Northeast  Level Estimated
07:46PM 11.0918 -60.9711 36° Northeast  Level Estimated
07:47PM 11.1470 -60.9304 36° Northeast  Level Estimated
07:48PM 11.2021 -60.8896 36° Northeast  Level Estimated
07:49PM 11.2572 -60.8488 36° Northeast  Level Estimated
07:50PM 11.3124 -60.8080 36° Northeast  Level Estimated
07:51PM 11.3675 -60.7672 36° Northeast  Level Estimated
07:52PM 11.4226 -60.7264 36° Northeast  Level Estimated
07:53PM 11.4777 -60.6855 36° Northeast  Level Estimated
07:54PM 11.5328 -60.6446 36° Northeast  Level Estimated
07:55PM 11.5879 -60.6038 36° Northeast  Level Estimated
07:56PM 11.6430 -60.5629 36° Northeast  Level Estimated
07:57PM 11.6980 -60.5220 36° Northeast  Level Estimated
07:58PM 11.7531 -60.4810 36° Northeast  Level Estimated
07:59PM 11.8082 -60.4401 36° Northeast  Level Estimated
08:00PM 11.8632 -60.3991 36° Northeast  Level Estimated
08:01PM 11.9183 -60.3581 36° Northeast  Level Estimated
08:02PM 11.9733 -60.3171 36° Northeast  Level Estimated
08:03PM 12.0284 -60.2761 36° Northeast  Level Estimated
08:04PM 12.0834 -60.2351 36° Northeast  Level Estimated
08:05PM 12.1385 -60.1940 36° Northeast  Level Estimated
08:06PM 12.1935 -60.1530 36° Northeast  Level Estimated
08:07PM 12.2485 -60.1119 36° Northeast  Level Estimated
08:08PM 12.3035 -60.0708 36° Northeast  Level Estimated
08:09PM 12.3585 -60.0297 36° Northeast  Level Estimated
08:10PM 12.4135 -59.9886 36° Northeast  Level Estimated
08:11PM 12.4685 -59.9474 36° Northeast  Level Estimated
08:12PM 12.5235 -59.9062 36° Northeast  Level Estimated
08:13PM 12.5785 -59.8651 36° Northeast  Level Estimated
08:14PM 12.6335 -59.8239 36° Northeast  Level Estimated
08:15PM 12.6884 -59.7826 36° Northeast  Level Estimated
08:16PM 12.7434 -59.7414 36° Northeast  Level Estimated
08:17PM 12.7984 -59.7002 36° Northeast  Level Estimated
08:18PM 12.8533 -59.6589 36° Northeast  Level Estimated
08:18PM 12.5890 -59.8540 36° Northeast 293 337 11,900  Level FlightAware
08:18PM 12.6390 -59.8270 28° Northeast 284 327 10,800 -1,560 Descending FlightAware
08:19PM 12.6910 -59.7980 29° Northeast 281 323 9,700 -1,560 Descending FlightAware
08:19PM 12.7200 -59.7820 28° Northeast 281 323 9,000 -1,440 Descending FlightAware
08:20PM 12.7440 -59.7680 30° Northeast 281 323 8,500 -600 Descending FlightAware
08:20PM 12.7720 -59.7530 28° Northeast 281 323 8,500  Level FlightAware
08:21PM 12.8010 -59.7370 28° Northeast 281 323 8,500  Level FlightAware
08:21PM 12.8300 -59.7210 28° Northeast 281 323 8,500  Level FlightAware
08:22PM 12.8600 -59.7050 27° Northeast 281 323 8,500  Level FlightAware
08:24PM 12.9441 -59.6217 44° Northeast  Level Estimated
08:25PM 12.9932 -59.5732 44° Northeast  Level Estimated
08:26PM 13.0422 -59.5246 44° Northeast  Level Estimated
08:27PM 13.0746 -59.4925 44° Northeast  Level Estimated
08:28PM 13.0746 -59.4925 52° Northeast  Level Estimated
08:29PM 13.0746 -59.4925 52° Northeast  Level Estimated
08:30PM 13.0746 -59.4925 52° Northeast  Level Estimated
08:31PM 13.0746 -59.4925 52° Northeast  Level Estimated
08:32PM 13.0746 -59.4925 52° Northeast  Level Estimated
08:33PM 13.0746 -59.4925 52° Northeast  Level Estimated
08:34PM 13.0746 -59.4925 52° Northeast  Level Estimated
08:35PM 13.0746 -59.4925 52° Northeast  Level Estimated
08:36PM 13.0746 -59.4925 52° Northeast  Level Estimated